Time;durP1;ratioP1;P1;durP2;ratioP2;P2;SDS_P1;SDS_P2;PMS_P1;PMS_P2;Temp;Humidity;BMP_temperature;BMP_pressure;BME280_temperature;BME280_humidity;BME280_pressure;Samples;Min_cycle;Max_cycle;Signal;HPM_P1;HPM_P2
2021/03/03 00:00:32;;;;;;;321.77;150.45;;;;;;;0.66;70.94;101902.16;2189340;80;30509;-65
2021/03/03 00:03:36;;;;;;;335.93;157.00;;;;;;;0.63;70.87;101899.45;2176502;81;27675;-65
2021/03/03 00:06:38;;;;;;;328.83;154.32;;;;;;;0.63;71.06;101895.91;2177303;80;28809;-65
2021/03/03 00:09:41;;;;;;;329.57;154.32;;;;;;;0.60;71.23;101899.40;2196320;79;31609;-66
2021/03/03 00:12:43;;;;;;;323.73;148.90;;;;;;;0.58;71.07;101899.35;2187857;81;34126;-65
2021/03/03 00:15:45;;;;;;;302.52;145.12;;;;;;;0.55;71.16;101895.37;2188251;81;29170;-66
2021/03/03 00:18:47;;;;;;;305.25;140.25;;;;;;;0.54;71.07;101901.50;2192904;79;27658;-66
2021/03/03 00:21:49;;;;;;;314.50;143.87;;;;;;;0.51;71.04;101897.48;2188332;81;28871;-64
2021/03/03 00:24:51;;;;;;;316.57;144.07;;;;;;;0.50;71.17;101893.52;2188133;81;32565;-64
2021/03/03 00:27:54;;;;;;;322.93;146.28;;;;;;;0.48;71.10;101888.64;2201714;79;33197;-64
2021/03/03 00:30:56;;;;;;;324.23;150.15;;;;;;;0.47;71.07;101890.82;2192895;79;29465;-65
2021/03/03 00:33:58;;;;;;;313.43;142.57;;;;;;;0.43;71.32;101893.39;2188574;79;27585;-65
2021/03/03 00:37:00;;;;;;;311.92;148.22;;;;;;;0.42;71.19;101889.39;2210565;79;28824;-64
2021/03/03 00:40:05;;;;;;;307.23;142.47;;;;;;;0.41;71.22;101886.33;2226077;79;31155;-65
2021/03/03 00:43:07;;;;;;;;;;;;;;;0.37;71.15;101889.31;2229061;79;33102;-65
2021/03/03 00:46:11;;;;;;;335.52;147.17;;;;;;;0.34;71.09;101886.62;2227387;79;29269;-65
2021/03/03 00:49:13;;;;;;;307.37;138.80;;;;;;;0.31;71.18;101885.27;2191904;79;27660;-63
2021/03/03 00:52:15;;;;;;;322.58;146.77;;;;;;;0.29;71.07;101885.67;2221686;79;29677;-64
2021/03/03 00:55:17;;;;;;;317.48;144.45;;;;;;;0.25;71.08;101886.02;2226869;79;32167;-64
2021/03/03 00:58:22;;;;;;;321.00;144.97;;;;;;;0.23;71.14;101885.54;2209280;79;33142;-65
2021/03/03 01:01:24;;;;;;;329.55;146.15;;;;;;;0.22;71.13;101889.03;2224069;80;29147;-67
2021/03/03 01:04:27;;;;;;;330.75;150.62;;;;;;;0.21;71.19;101883.30;2217787;79;27699;-65
2021/03/03 01:07:29;;;;;;;354.35;160.30;;;;;;;0.19;71.23;101885.02;2199393;79;28910;-66
2021/03/03 01:10:31;;;;;;;333.23;157.07;;;;;;;0.17;71.22;101884.13;2203846;79;31130;-64
2021/03/03 01:13:33;;;;;;;336.10;154.27;;;;;;;0.16;71.21;101884.54;2234684;79;34019;-63
2021/03/03 01:16:39;;;;;;;349.18;155.07;;;;;;;0.13;71.26;101884.06;2234414;79;29332;-65
2021/03/03 01:19:42;;;;;;;344.70;150.20;;;;;;;0.13;71.18;101879.20;2213835;79;27596;-66
2021/03/03 01:22:44;;;;;;;339.30;151.78;;;;;;;0.12;71.15;101882.70;2227307;79;28951;-67
2021/03/03 01:25:46;;;;;;;323.65;147.53;;;;;;;0.08;71.16;101877.80;2227328;79;31123;-66
2021/03/03 01:28:48;;;;;;;334.35;151.90;;;;;;;0.06;71.14;101871.61;2232541;79;33630;-66
2021/03/03 01:31:51;;;;;;;328.65;144.70;;;;;;;0.07;71.17;101879.11;2228497;79;29223;-67
2021/03/03 01:34:53;;;;;;;329.82;149.47;;;;;;;0.04;71.13;101877.72;2205266;79;27638;-66
2021/03/03 01:37:55;;;;;;;323.60;145.53;;;;;;;0.03;71.16;101872.87;2199058;79;28772;-67
2021/03/03 01:40:57;;;;;;;304.55;140.80;;;;;;;0.01;71.18;101872.39;2213827;79;31077;-67
2021/03/03 01:43:59;;;;;;;305.57;135.22;;;;;;;-0.03;71.23;101869.69;2207701;79;33590;-67
2021/03/03 01:47:01;;;;;;;310.38;133.57;;;;;;;-0.04;72.13;101862.64;2226572;79;30063;-67
2021/03/03 01:50:10;;;;;;;293.12;135.55;;;;;;;-0.03;71.95;101855.64;2227601;79;27699;-66
2021/03/03 01:53:12;;;;;;;293.88;131.50;;;;;;;-0.04;71.85;101861.32;2217426;79;29811;-63
2021/03/03 01:56:15;;;;;;;290.90;128.05;;;;;;;-0.05;72.04;101852.96;2186011;81;31132;-68
2021/03/03 01:59:17;;;;;;;286.07;129.87;;;;;;;-0.05;72.06;101846.81;2224460;79;33986;-66
2021/03/03 02:02:23;;;;;;;281.87;121.65;;;;;;;-0.05;72.25;101846.38;2188572;79;30099;-67
2021/03/03 02:05:26;;;;;;;281.47;124.45;;;;;;;-0.04;72.02;101842.02;2188801;79;27613;-66
2021/03/03 02:08:32;;;;;;;276.50;123.30;;;;;;;-0.05;71.92;101840.23;2213027;79;29240;-67
2021/03/03 02:11:47;;;;;;;286.77;125.25;;;;;;;-0.06;71.80;101834.05;2224750;79;31148;-65
2021/03/03 02:14:56;;;;;;;265.77;121.43;;;;;;;-0.09;71.76;101830.48;2203966;79;33092;-67
2021/03/03 02:18:02;;;;;;;279.73;124.38;;;;;;;-0.09;71.75;101837.07;2189188;79;30103;-66
2021/03/03 02:21:38;;;;;;;284.02;120.82;;;;;;;-0.11;71.69;101831.78;2188812;79;27654;-66
2021/03/03 02:24:48;;;;;;;273.95;122.58;;;;;;;-0.13;71.69;101825.59;2176069;81;28662;-65
2021/03/03 02:27:50;;;;;;;290.05;125.92;;;;;;;-0.16;71.79;101821.14;2156774;81;32480;-65
2021/03/03 02:30:52;;;;;;;305.35;133.52;;;;;;;-0.17;71.90;101819.39;2147151;82;34579;-67
2021/03/03 02:33:56;;;;;;;292.52;129.55;;;;;;;-0.17;72.00;101818.48;2144737;82;30046;-67
2021/03/03 02:36:58;;;;;;;284.20;123.45;;;;;;;-0.20;72.15;101815.38;2153369;82;27810;-67
2021/03/03 02:40:06;;;;;;;288.57;125.75;;;;;;;-0.20;72.24;101810.52;2162628;82;28884;-67
2021/03/03 02:43:19;;;;;;;277.47;121.47;;;;;;;-0.16;72.29;101805.78;2242834;77;27660;-67
2021/03/03 02:46:22;;;;;;;275.73;124.22;;;;;;;-0.21;72.47;101803.06;2217463;80;27756;-67
2021/03/03 02:49:24;;;;;;;268.20;118.90;;;;;;;-0.20;72.58;101806.57;2216563;80;30076;-66
2021/03/03 02:52:27;;;;;;;278.80;119.90;;;;;;;-0.21;72.33;101797.80;2206942;80;31198;-64
2021/03/03 02:55:30;;;;;;;270.20;119.17;;;;;;;-0.20;72.15;101798.26;2178859;81;34451;-65
2021/03/03 02:58:32;;;;;;;264.45;117.82;;;;;;;-0.21;72.04;101799.52;2179540;80;28531;-67
2021/03/03 03:01:38;;;;;;;269.85;118.67;;;;;;;-0.23;71.97;101796.88;2192191;80;27706;-66
2021/03/03 03:04:44;;;;;;;260.27;116.53;;;;;;;-0.24;71.97;101795.09;2201016;80;28794;-67
2021/03/03 03:07:51;;;;;;;266.98;116.28;;;;;;;-0.26;71.95;101791.55;2180049;80;31141;-64
2021/03/03 03:10:53;;;;;;;265.27;119.35;;;;;;;-0.27;72.15;101788.89;2148766;81;33262;-67
2021/03/03 03:14:05;;;;;;;264.45;116.00;;;;;;;-0.28;72.00;101788.44;2178133;81;28850;-66
2021/03/03 03:17:08;;;;;;;274.75;118.00;;;;;;;-0.30;71.94;101787.06;2188676;80;27701;-68
2021/03/03 03:20:11;;;;;;;269.75;118.37;;;;;;;-0.31;71.96;101790.14;2184208;80;28807;-67
2021/03/03 03:23:14;;;;;;;273.65;124.25;;;;;;;-0.34;71.97;101783.50;2178750;81;31142;-67
2021/03/03 03:26:16;;;;;;;279.00;118.72;;;;;;;-0.35;71.91;101776.90;2184582;80;34389;-67
2021/03/03 03:29:19;;;;;;;268.80;119.97;;;;;;;-0.36;71.92;101780.39;2216540;80;29752;-67
2021/03/03 03:32:21;;;;;;;264.63;118.37;;;;;;;-0.39;71.88;101777.69;2217462;80;27621;-67
2021/03/03 03:35:25;;;;;;;270.33;119.25;;;;;;;-0.39;71.84;101779.88;2217381;80;29286;-66
2021/03/03 03:38:33;;;;;;;270.73;121.05;;;;;;;-0.40;71.81;101779.86;2188875;80;31135;-66
2021/03/03 03:41:36;;;;;;;270.48;121.80;;;;;;;-0.42;71.87;101771.94;2195684;80;33542;-67
2021/03/03 03:44:40;;;;;;;271.55;117.80;;;;;;;-0.43;71.92;101775.84;2195820;80;28871;-68
2021/03/03 03:47:43;;;;;;;265.62;119.35;;;;;;;-0.46;71.87;101776.23;2193120;80;27784;-67
2021/03/03 03:50:46;;;;;;;269.85;116.15;;;;;;;-0.49;71.87;101778.80;2217480;80;29698;-67
2021/03/03 03:53:48;;;;;;;251.05;110.97;;;;;;;-0.51;72.19;101789.76;2216096;80;31125;-68
2021/03/03 03:56:50;;;;;;;257.70;114.90;;;;;;;-0.52;72.67;101784.03;2201747;79;33183;-68
2021/03/03 03:59:52;;;;;;;255.37;112.60;;;;;;;-0.52;72.37;101785.34;2216551;80;28809;-68
2021/03/03 04:02:56;;;;;;;246.47;114.30;;;;;;;-0.54;72.25;101783.52;2216804;80;27629;-69
2021/03/03 04:05:59;;;;;;;246.80;110.52;;;;;;;-0.55;72.19;101781.33;2216555;80;29133;-69
2021/03/03 04:09:02;;;;;;;239.53;110.55;;;;;;;-0.57;72.24;101780.82;2205528;80;31136;-68
2021/03/03 04:12:04;;;;;;;261.32;113.88;;;;;;;-0.59;72.19;101779.48;2183290;80;34039;-68
2021/03/03 04:15:08;;;;;;;257.65;115.65;;;;;;;-0.59;72.17;101775.54;2178125;81;28900;-68
2021/03/03 04:18:12;;;;;;;246.00;110.70;;;;;;;-0.60;72.19;101778.16;2193891;80;27674;-68
2021/03/03 04:21:14;;;;;;;256.00;109.37;;;;;;;-0.62;72.16;101779.42;2186990;80;29759;-67
2021/03/03 04:24:16;;;;;;;238.55;107.17;;;;;;;-0.63;72.14;101773.69;2177907;81;31605;-67
2021/03/03 04:27:18;;;;;;;234.32;105.12;;;;;;;-0.64;72.22;101775.45;2185076;80;33134;-69
2021/03/03 04:30:23;;;;;;;236.92;107.45;;;;;;;-0.64;72.44;101769.28;2198421;80;28933;-68
2021/03/03 04:33:26;;;;;;;235.68;102.58;;;;;;;-0.65;72.46;101767.09;2183193;80;27708;-67
2021/03/03 04:36:28;;;;;;;228.22;102.10;;;;;;;-0.68;72.42;101764.39;2216711;80;28808;-68
2021/03/03 04:39:30;;;;;;;231.05;101.72;;;;;;;-0.69;72.28;101762.62;2182577;80;32544;-67
2021/03/03 04:42:32;;;;;;;218.78;96.97;;;;;;;-0.69;72.29;101754.72;2205185;80;34044;-66
2021/03/03 04:45:34;;;;;;;221.28;97.90;;;;;;;-0.70;72.39;101755.58;2223982;80;28858;-66
2021/03/03 04:48:37;;;;;;;217.32;98.25;;;;;;;-0.69;72.56;101759.11;2223160;80;27725;-67
2021/03/03 04:51:39;;;;;;;217.85;97.53;;;;;;;-0.69;72.50;101754.72;2220630;80;28797;-65
2021/03/03 04:54:41;;;;;;;206.05;96.22;;;;;;;-0.68;72.56;101754.31;2222223;80;31562;-66
2021/03/03 04:57:43;;;;;;;202.65;94.13;;;;;;;-0.65;72.66;101755.66;2193617;80;34035;-66
2021/03/03 05:00:45;;;;;;;214.97;96.47;;;;;;;-0.62;72.74;101760.99;2223654;80;28925;-67
2021/03/03 05:03:47;;;;;;;211.72;93.22;;;;;;;-0.59;72.77;101755.80;2219652;80;27637;-66
2021/03/03 05:06:49;;;;;;;200.82;93.52;;;;;;;-0.55;72.86;101754.11;2212707;80;29244;-66
2021/03/03 05:09:51;;;;;;;208.90;96.57;;;;;;;-0.50;72.98;101749.42;2223115;80;32497;-66
2021/03/03 05:12:53;;;;;;;215.10;98.30;;;;;;;-0.44;73.11;101745.11;2224066;80;33158;-65
2021/03/03 05:15:56;;;;;;;238.70;103.07;;;;;;;-0.39;73.18;101739.51;2188426;80;29700;-66
2021/03/03 05:18:58;;;;;;;250.60;101.72;;;;;;;-0.34;73.43;101732.16;2213383;80;27715;-65
2021/03/03 05:22:00;;;;;;;252.90;102.92;;;;;;;-0.29;73.69;101720.38;2223688;80;28793;-65
2021/03/03 05:25:03;;;;;;;254.05;103.50;;;;;;;-0.23;73.81;101729.72;2200104;80;31146;-67
2021/03/03 05:28:05;;;;;;;277.77;112.57;;;;;;;-0.17;73.88;101726.30;2186998;80;33129;-66
2021/03/03 05:31:07;;;;;;;287.00;109.50;;;;;;;-0.11;74.06;101724.20;2184297;80;28934;-65
2021/03/03 05:34:09;;;;;;;292.07;116.22;;;;;;;-0.06;74.18;101727.37;2199142;80;27770;-67
2021/03/03 05:37:11;;;;;;;289.80;113.08;;;;;;;0.00;74.21;101716.08;2223762;80;28816;-66
2021/03/03 05:40:15;;;;;;;323.85;121.42;;;;;;;0.07;74.23;101724.97;2197328;80;31175;-67
2021/03/03 05:43:18;;;;;;;345.48;124.25;;;;;;;0.11;74.30;101723.72;2223855;80;34024;-64
2021/03/03 05:46:20;;;;;;;348.30;130.90;;;;;;;0.16;74.41;101729.51;2222393;80;28669;-65
2021/03/03 05:49:26;;;;;;;332.07;129.55;;;;;;;0.20;74.54;101721.67;2196174;80;27635;-65
2021/03/03 05:52:32;;;;;;;369.50;137.92;;;;;;;0.25;74.74;101716.47;2185134;81;28102;-65
2021/03/03 05:55:34;;;;;;;352.50;137.55;;;;;;;0.31;74.87;101717.89;2192718;80;32039;-65
2021/03/03 05:58:39;;;;;;;341.48;134.27;;;;;;;0.38;74.91;101714.92;2202657;80;32801;-66
2021/03/03 06:01:43;;;;;;;321.70;135.78;;;;;;;0.43;74.93;101710.16;2223932;80;28927;-65
2021/03/03 06:04:48;;;;;;;339.70;130.45;;;;;;;0.49;75.09;101701.45;2191427;80;27624;-69
2021/03/03 06:07:50;;;;;;;;;;;;;;;0.56;75.21;101709.02;2225850;80;28824;-65
2021/03/03 06:10:52;;;;;;;302.65;115.62;;;;;;;0.64;75.25;101701.22;2223682;80;31150;-67
2021/03/03 06:13:59;;;;;;;268.23;104.50;;;;;;;0.71;75.33;101703.09;2220587;80;33970;-68
2021/03/03 06:17:02;;;;;;;237.95;97.60;;;;;;;0.78;75.42;101697.02;2203795;80;28862;-65
2021/03/03 06:20:05;;;;;;;215.80;93.33;;;;;;;0.89;75.46;101702.44;2185780;80;27686;-66
2021/03/03 06:23:17;;;;;;;232.05;95.30;;;;;;;0.98;75.55;101697.30;2184993;81;28818;-65
2021/03/03 06:26:19;;;;;;;245.85;90.97;;;;;;;1.09;75.60;101696.53;2185125;81;32047;-64
2021/03/03 06:29:22;;;;;;;221.97;87.72;;;;;;;1.13;75.24;101692.62;2209242;80;34423;-66
2021/03/03 06:32:24;;;;;;;202.03;88.25;;;;;;;1.11;75.23;101688.20;2222384;80;29720;-69
2021/03/03 06:35:45;;;;;;;243.78;87.80;;;;;;;1.08;75.14;101685.07;2223532;80;27733;-70
2021/03/03 06:38:47;;;;;;;185.80;82.33;;;;;;;1.11;75.19;101683.80;2216807;80;28876;-68
2021/03/03 06:41:52;;;;;;;197.75;82.65;;;;;;;1.14;75.31;101685.16;2222997;80;31189;-68
2021/03/03 06:44:56;;;;;;;197.10;83.15;;;;;;;1.19;75.32;101677.28;2220522;80;34546;-65
2021/03/03 06:47:59;;;;;;;172.45;80.03;;;;;;;1.28;75.47;101681.37;2223049;80;29094;-69
2021/03/03 06:51:01;;;;;;;190.85;88.17;;;;;;;1.36;75.44;101675.72;2205469;80;27739;-67
2021/03/03 06:54:06;;;;;;;196.70;85.12;;;;;;;1.46;75.51;101676.70;2185037;81;29556;-67
2021/03/03 06:57:13;;;;;;;191.10;85.30;;;;;;;1.59;75.40;101665.84;2160193;80;31161;-65
2021/03/03 07:00:15;;;;;;;189.05;84.07;;;;;;;1.68;75.23;101674.28;2187876;80;33085;-66
2021/03/03 07:03:34;;;;;;;210.17;89.90;;;;;;;1.80;75.25;101669.55;2220676;80;28923;-65
2021/03/03 07:06:36;;;;;;;196.75;86.30;;;;;;;1.92;75.27;101669.66;2185171;81;27633;-69
2021/03/03 07:09:57;;;;;;;193.50;88.50;;;;;;;2.00;75.08;101664.84;2185389;80;29275;-66
2021/03/03 07:12:58;;;;;;;201.12;86.55;;;;;;;2.10;75.09;101668.03;2186729;80;31159;-67
2021/03/03 07:16:08;;;;;;;187.35;88.40;;;;;;;2.24;75.13;101665.47;2185023;81;33928;-66
2021/03/03 07:19:22;;;;;;;170.75;78.85;;;;;;;2.37;75.05;101665.13;2185495;80;29868;-69
2021/03/03 07:22:33;;;;;;;166.85;80.75;;;;;;;2.53;74.81;101668.30;2184810;81;27744;-65
2021/03/03 07:25:35;;;;;;;159.43;80.92;;;;;;;2.62;74.71;101678.06;2185778;80;29795;-67
2021/03/03 07:28:39;;;;;;;159.65;81.90;;;;;;;2.81;74.71;101688.32;2193508;80;31181;-67
2021/03/03 07:31:43;;;;;;;165.50;81.78;;;;;;;3.02;74.81;101688.86;2185477;80;34388;-66
2021/03/03 07:34:52;;;;;;;187.43;89.37;;;;;;;3.23;74.57;101692.89;2184992;81;28819;-65
2021/03/03 07:37:57;;;;;;;179.25;86.65;;;;;;;3.39;74.25;101689.86;2200964;80;27692;-67
2021/03/03 07:41:12;;;;;;;165.77;85.25;;;;;;;3.57;74.07;101684.58;2224240;80;28767;-65
2021/03/03 07:44:19;;;;;;;177.65;89.25;;;;;;;3.80;73.96;101683.31;2218773;80;30961;-68
2021/03/03 07:47:28;;;;;;;183.35;90.17;;;;;;;4.06;74.04;101673.14;2187036;78;33984;-69
2021/03/03 07:50:30;;;;;;;179.32;90.15;;;;;;;4.31;73.69;101669.12;2208725;78;29149;-68
2021/03/03 07:53:38;;;;;;;184.28;91.47;;;;;;;4.59;73.71;101667.77;2189635;78;27586;-67
2021/03/03 07:56:40;;;;;;;188.57;90.03;;;;;;;4.85;73.50;101668.11;2208362;80;28900;-68
2021/03/03 07:59:44;;;;;;;179.18;88.87;;;;;;;5.13;73.52;101658.25;2193863;80;30514;-69
2021/03/03 08:02:52;;;;;;;162.90;84.80;;;;;;;5.42;72.99;101653.20;2190393;80;33169;-67
2021/03/03 08:05:55;;;;;;;167.65;84.45;;;;;;;5.68;72.91;101645.52;2185703;80;29167;-68
2021/03/03 08:09:10;;;;;;;171.60;86.60;;;;;;;5.97;72.52;101654.13;2214912;80;27714;-69
2021/03/03 08:12:12;;;;;;;136.18;75.37;;;;;;;6.17;72.05;101646.03;2212197;80;28814;-68
2021/03/03 08:15:36;;;;;;;145.12;76.80;;;;;;;6.40;71.95;101639.14;2206041;80;31234;-68
2021/03/03 08:18:57;;;;;;;140.95;74.22;;;;;;;6.62;71.99;101639.78;2178317;80;33092;-68
2021/03/03 08:21:59;;;;;;;131.47;73.47;;;;;;;6.82;71.28;101628.88;2192945;80;29172;-67
2021/03/03 08:25:01;;;;;;;143.07;77.85;;;;;;;7.04;71.15;101626.37;2148735;81;27544;-64
2021/03/03 08:28:26;;;;;;;134.87;72.37;;;;;;;7.23;71.09;101621.69;2179996;80;28761;-66
2021/03/03 08:31:29;;;;;;;124.58;71.65;;;;;;;7.41;70.82;101625.86;2206700;80;31192;-65
2021/03/03 08:34:49;;;;;;;135.03;73.65;;;;;;;7.54;70.68;101622.09;2179371;80;33115;-67
2021/03/03 08:37:53;;;;;;;142.45;73.28;;;;;;;7.64;70.48;101621.97;2186183;80;29225;-67
2021/03/03 08:41:20;;;;;;;134.85;73.25;;;;;;;7.79;70.23;101611.05;2166885;80;27807;-67
2021/03/03 08:44:23;;;;;;;135.40;71.92;;;;;;;7.83;70.15;101611.42;2182781;81;28826;-65
2021/03/03 08:47:54;;;;;;;130.55;71.35;;;;;;;7.89;70.28;101609.97;2184941;80;31702;-69
2021/03/03 08:50:56;;;;;;;134.78;72.35;;;;;;;7.95;70.18;101607.64;2161115;81;33144;-68
2021/03/03 08:54:04;;;;;;;139.50;71.33;;;;;;;8.00;69.92;101608.45;2165444;81;29169;-69
2021/03/03 08:57:31;;;;;;;136.77;71.60;;;;;;;8.08;69.86;101608.31;2142850;83;27653;-69
2021/03/03 09:00:46;;;;;;;130.93;70.42;;;;;;;8.12;69.56;101603.79;2146788;80;28884;-67
2021/03/03 09:03:52;;;;;;;146.35;74.15;;;;;;;8.16;69.69;101594.39;2156634;81;32030;-69
2021/03/03 09:06:56;;;;;;;142.80;74.25;;;;;;;8.19;69.36;101594.30;2154463;81;33100;-67
2021/03/03 09:10:10;;;;;;;131.93;72.42;;;;;;;8.24;69.56;101589.34;2167929;81;29361;-67
2021/03/03 09:13:27;;;;;;;135.70;77.37;;;;;;;8.31;69.67;101587.86;2176853;81;27714;-66
2021/03/03 09:16:29;;;;;;;135.72;75.83;;;;;;;8.45;69.38;101590.70;2163590;80;29159;-65
2021/03/03 09:19:33;;;;;;;136.35;75.42;;;;;;;8.46;69.26;101588.45;2159397;81;32590;-65
2021/03/03 09:22:41;;;;;;;142.75;77.65;;;;;;;8.58;69.35;101588.27;2178504;81;33109;-65
2021/03/03 09:25:53;;;;;;;135.73;75.40;;;;;;;8.75;69.28;101582.55;2343152;76;30819;-63
2021/03/03 09:28:55;;;;;;;134.82;76.10;;;;;;;8.81;69.10;101584.21;2294707;77;27682;-64
2021/03/03 09:31:59;;;;;;;127.58;75.08;;;;;;;8.92;68.86;101583.55;2271097;77;28824;-62
2021/03/03 09:35:06;;;;;;;123.90;71.65;;;;;;;9.02;68.80;101575.30;2226552;78;31133;-59
2021/03/03 09:38:11;;;;;;;116.42;69.25;;;;;;;9.11;68.68;101575.98;2286046;77;33094;-62
2021/03/03 09:41:19;;;;;;;120.62;69.05;;;;;;;9.21;68.55;101557.03;2264040;77;30861;-63
2021/03/03 09:44:17;;;;;;;112.83;64.35;;;;;;;9.36;68.71;101550.45;2266795;77;27621;-65
2021/03/03 09:47:30;;;;;;;114.60;64.35;;;;;;;9.48;67.94;101546.61;2271933;77;28815;-67
2021/03/03 09:50:33;;;;;;;111.40;67.05;;;;;;;9.62;67.36;101550.25;2271673;77;31320;-62
2021/03/03 09:53:35;;;;;;;111.30;59.23;;;;;;;9.75;67.46;101549.48;2300729;77;33121;-60
2021/03/03 09:56:37;;;;;;;114.55;63.70;;;;;;;9.84;65.75;101543.91;2264244;77;28853;-62
2021/03/03 09:59:43;;;;;;;102.35;61.53;;;;;;;9.88;66.30;101542.88;2275513;77;27625;-58
2021/03/03 10:03:09;;;;;;;112.77;66.02;;;;;;;9.98;66.24;101543.07;2269565;77;28873;-60
2021/03/03 10:06:11;;;;;;;110.17;60.85;;;;;;;10.13;66.24;101536.40;2291766;77;31133;-59
2021/03/03 10:09:14;;;;;;;99.15;54.70;;;;;;;10.27;65.71;101529.77;2287696;77;33126;-62
2021/03/03 10:12:18;;;;;;;99.13;52.88;;;;;;;10.39;65.45;101521.88;2286482;75;28817;-62
2021/03/03 10:15:25;;;;;;;90.13;50.67;;;;;;;10.52;65.08;101525.09;2262643;77;27686;-59
2021/03/03 10:18:27;;;;;;;90.72;51.13;;;;;;;10.69;64.35;101516.08;2282071;77;28853;-63
2021/03/03 10:21:29;;;;;;;113.72;59.18;;;;;;;10.82;64.08;101506.31;2274556;77;31128;-60
2021/03/03 10:24:33;;;;;;;87.70;51.75;;;;;;;10.93;63.96;101497.45;2279432;77;33325;-65
2021/03/03 10:27:41;;;;;;;101.75;56.60;;;;;;;11.00;62.48;101510.23;2292780;77;28841;-64
2021/03/03 10:30:56;;;;;;;99.75;53.85;;;;;;;11.00;62.68;101506.21;2274323;77;28141;-64
2021/03/03 10:34:12;;;;;;;95.63;53.13;;;;;;;11.02;62.34;101498.52;2266120;77;29031;-62
2021/03/03 10:37:25;;;;;;;91.78;51.90;;;;;;;11.06;62.59;101495.27;2282381;77;32600;-63
2021/03/03 10:40:27;;;;;;;80.00;46.25;;;;;;;11.16;62.85;101491.83;2285602;77;33182;-62
2021/03/03 10:43:31;;;;;;;80.45;45.60;;;;;;;11.22;61.19;101490.30;2248780;77;28868;-62
2021/03/03 10:46:35;;;;;;;81.60;44.53;;;;;;;11.22;61.68;101484.93;2283400;77;27637;-63
2021/03/03 10:49:40;;;;;;;65.57;37.13;;;;;;;11.26;61.87;101479.84;2300763;77;28792;-64
2021/03/03 10:52:59;;;;;;;65.75;38.10;;;;;;;11.38;62.58;101477.22;2211509;80;30225;-62
2021/03/03 10:56:01;;;;;;;69.27;38.92;;;;;;;11.51;61.18;101464.27;2216127;80;33014;-60
2021/03/03 10:59:09;;;;;;;57.95;34.13;;;;;;;11.56;60.34;101462.31;2163463;81;28876;-61
2021/03/03 11:02:17;;;;;;;69.25;35.70;;;;;;;11.59;60.08;101455.47;2187225;81;27660;-63
2021/03/03 11:05:22;;;;;;;53.15;31.42;;;;;;;11.66;60.82;101451.66;2185687;80;29359;-64
2021/03/03 11:08:27;;;;;;;53.85;30.65;;;;;;;11.76;60.47;101445.94;2247368;79;31188;-65
2021/03/03 11:11:29;;;;;;;54.53;32.05;;;;;;;11.86;59.72;101442.00;2249378;79;33114;-65
2021/03/03 11:17:51;;;;;;;45.30;28.47;;;;;;;12.09;59.36;101426.41;2228908;78;32313;-60
2021/03/03 11:20:53;;;;;;;51.73;33.45;;;;;;;12.23;58.78;101424.55;2208185;79;30623;-65
2021/03/03 11:23:55;;;;;;;36.93;21.37;;;;;;;12.48;57.81;101416.85;2228586;79;28790;-63
2021/03/03 11:26:57;;;;;;;33.50;19.05;;;;;;;12.60;57.30;101414.16;2194991;79;31201;-63
2021/03/03 11:29:59;;;;;;;26.40;17.12;;;;;;;12.67;56.61;101410.75;2208352;79;33606;-62
2021/03/03 11:33:02;;;;;;;39.67;21.23;;;;;;;12.71;55.80;101402.48;2228016;79;28655;-60
2021/03/03 11:36:05;;;;;;;38.60;22.17;;;;;;;12.72;55.59;101392.14;2228403;79;27769;-62
2021/03/03 11:39:09;;;;;;;40.33;21.65;;;;;;;12.73;55.32;101389.00;2221120;79;28860;-64
2021/03/03 11:42:11;;;;;;;37.40;21.67;;;;;;;12.75;54.76;101383.95;2197563;79;32172;-62
2021/03/03 11:45:15;;;;;;;33.45;19.00;;;;;;;12.81;54.42;101385.50;2203033;79;33108;-60
2021/03/03 11:48:18;;;;;;;32.85;20.37;;;;;;;12.83;55.21;101370.19;2220294;79;29625;-61
2021/03/03 11:51:20;;;;;;;37.67;20.27;;;;;;;12.89;54.59;101367.70;2208337;79;27624;-62
2021/03/03 11:54:22;;;;;;;32.75;18.62;;;;;;;12.91;53.97;101358.62;2227852;79;29079;-61
2021/03/03 11:57:24;;;;;;;28.73;18.17;;;;;;;12.95;54.15;101353.11;2225289;79;31068;-63
2021/03/03 12:00:26;;;;;;;31.87;18.10;;;;;;;13.01;53.89;101343.45;2227527;79;33116;-64
2021/03/03 12:03:29;;;;;;;28.52;17.17;;;;;;;13.08;53.67;101343.56;2208307;79;28850;-62
2021/03/03 12:06:32;;;;;;;34.27;17.15;;;;;;;13.18;53.74;101335.97;2189163;81;27640;-64
2021/03/03 12:09:34;;;;;;;28.10;17.45;;;;;;;13.27;53.31;101326.62;2234716;78;28821;-65
2021/03/03 12:12:36;;;;;;;29.98;19.45;;;;;;;13.35;52.24;101323.99;2271753;78;31073;-66
2021/03/03 12:15:39;;;;;;;32.85;20.12;;;;;;;13.41;52.75;101321.52;2226386;79;32590;-70
2021/03/03 12:18:41;;;;;;;31.60;19.98;;;;;;;13.47;52.49;101315.88;2187196;79;29282;-69
2021/03/03 12:21:43;;;;;;;31.07;17.85;;;;;;;13.49;52.61;101311.30;2185000;80;27644;-71
2021/03/03 12:24:45;;;;;;;26.62;15.95;;;;;;;13.57;51.83;101302.01;2212874;80;28805;-70
2021/03/03 12:27:47;;;;;;;28.67;17.40;;;;;;;13.65;50.47;101302.52;2217380;80;31138;-72
2021/03/03 12:30:50;;;;;;;37.25;20.92;;;;;;;13.70;51.47;101299.14;2212265;80;33963;-73
2021/03/03 12:33:52;;;;;;;37.75;22.70;;;;;;;13.74;51.24;101288.60;2208687;80;28867;-70
2021/03/03 12:36:54;;;;;;;38.85;21.62;;;;;;;13.77;50.89;101284.42;2210918;80;27685;-69
2021/03/03 12:39:56;;;;;;;34.08;19.92;;;;;;;13.81;51.04;101276.61;2206848;80;28809;-70
2021/03/03 12:42:58;;;;;;;34.03;21.15;;;;;;;13.88;51.41;101272.28;2169576;82;31143;-71
2021/03/03 12:46:00;;;;;;;36.60;22.48;;;;;;;13.93;51.53;101267.53;2201215;80;33122;-71
2021/03/03 12:49:05;;;;;;;47.08;25.88;;;;;;;13.95;50.72;101265.19;2214545;80;29739;-64
2021/03/03 12:52:07;;;;;;;75.03;37.78;;;;;;;13.97;50.96;101253.86;2208125;80;27702;-63
2021/03/03 12:55:12;;;;;;;44.18;25.82;;;;;;;14.00;50.55;101252.83;2217099;80;28999;-65
2021/03/03 12:58:14;;;;;;;40.40;24.43;;;;;;;14.04;51.20;101254.43;2201362;79;31208;-62
2021/03/03 13:01:17;;;;;;;36.15;22.62;;;;;;;14.02;50.74;101240.16;2187757;80;34250;-64
2021/03/03 13:04:19;;;;;;;40.30;24.63;;;;;;;14.02;50.90;101240.61;2212176;79;29301;-65
2021/03/03 13:07:21;;;;;;;37.55;22.60;;;;;;;14.03;50.50;101238.32;2170687;80;27550;-69
2021/03/03 13:10:24;;;;;;;39.75;22.67;;;;;;;14.04;50.04;101231.53;2169578;80;28955;-72
2021/03/03 13:13:26;;;;;;;40.50;22.82;;;;;;;14.05;49.84;101227.89;2177577;80;31133;-69
2021/03/03 13:16:30;;;;;;;38.20;22.45;;;;;;;14.06;49.82;101228.75;2188978;80;33130;-65
2021/03/03 13:19:33;;;;;;;39.88;23.40;;;;;;;14.06;50.21;101213.47;2164803;82;27745;-69
2021/03/03 13:22:36;;;;;;;49.98;23.73;;;;;;;14.08;49.93;101212.03;2155228;81;27671;-69
2021/03/03 13:25:38;;;;;;;36.65;22.20;;;;;;;14.08;49.85;101212.03;2135289;82;29726;-69
2021/03/03 13:28:41;;;;;;;38.05;20.85;;;;;;;14.07;49.26;101203.06;2142236;82;33505;-68
2021/03/03 13:31:43;;;;;;;34.83;18.50;;;;;;;14.09;48.62;101194.92;2164898;82;34925;-64
2021/03/03 13:34:46;;;;;;;86.00;46.30;;;;;;;14.11;48.62;101201.11;2146997;81;29288;-63
2021/03/03 13:37:48;;;;;;;39.90;22.80;;;;;;;14.11;48.60;101194.38;2142561;82;27868;-64
2021/03/03 13:40:50;;;;;;;36.50;19.87;;;;;;;14.11;48.48;101193.88;2154081;82;28826;-64
2021/03/03 13:43:52;;;;;;;83.33;43.25;;;;;;;14.12;48.23;101188.03;2148519;82;31071;-71
2021/03/03 13:46:54;;;;;;;104.00;58.40;;;;;;;14.12;48.37;101188.89;2181495;81;33318;-70
2021/03/03 13:49:56;;;;;;;107.12;60.90;;;;;;;14.13;47.86;101180.35;2155972;82;28867;-69
2021/03/03 13:52:59;;;;;;;55.80;31.42;;;;;;;14.14;47.99;101178.06;2175225;81;27695;-65
2021/03/03 13:56:01;;;;;;;78.12;37.90;;;;;;;14.12;47.92;101174.07;2080485;84;28819;-65